sensor_id;sensor_type;location;lat;lon;timestamp;P1;durP1;ratioP1;P2;durP2;ratioP2
61741;SDS011;47650;49.848;9.620;2022-12-31T00:02:00;2.28;;;1.00;;
61741;SDS011;47650;49.848;9.620;2022-12-31T00:04:26;0.85;;;0.70;;
61741;SDS011;47650;49.848;9.620;2022-12-31T00:06:52;0.60;;;0.50;;
61741;SDS011;47650;49.848;9.620;2022-12-31T00:09:17;1.10;;;0.80;;
61741;SDS011;47650;49.848;9.620;2022-12-31T00:11:42;1.15;;;0.65;;
61741;SDS011;47650;49.848;9.620;2022-12-31T00:14:08;1.10;;;0.65;;
61741;SDS011;47650;49.848;9.620;2022-12-31T00:16:34;0.73;;;0.73;;
61741;SDS011;47650;49.848;9.620;2022-12-31T00:19:05;1.95;;;0.98;;
61741;SDS011;47650;49.848;9.620;2022-12-31T00:21:35;0.88;;;0.73;;
61741;SDS011;47650;49.848;9.620;2022-12-31T00:24:01;1.73;;;0.80;;
61741;SDS011;47650;49.848;9.620;2022-12-31T00:26:29;1.25;;;0.75;;
61741;SDS011;47650;49.848;9.620;2022-12-31T00:28:56;0.85;;;0.80;;
61741;SDS011;47650;49.848;9.620;2022-12-31T00:31:24;1.48;;;0.70;;
61741;SDS011;47650;49.848;9.620;2022-12-31T00:33:52;3.13;;;0.85;;
61741;SDS011;47650;49.848;9.620;2022-12-31T00:36:23;1.00;;;0.80;;
61741;SDS011;47650;49.848;9.620;2022-12-31T00:38:53;0.80;;;0.60;;
61741;SDS011;47650;49.848;9.620;2022-12-31T00:41:24;1.48;;;0.80;;
61741;SDS011;47650;49.848;9.620;2022-12-31T00:43:50;2.08;;;0.70;;
61741;SDS011;47650;49.848;9.620;2022-12-31T00:46:16;1.00;;;0.60;;
61741;SDS011;47650;49.848;9.620;2022-12-31T00:48:42;1.15;;;0.60;;
61741;SDS011;47650;49.848;9.620;2022-12-31T00:51:09;1.00;;;0.75;;
61741;SDS011;47650;49.848;9.620;2022-12-31T00:53:36;0.98;;;0.65;;
61741;SDS011;47650;49.848;9.620;2022-12-31T00:56:06;1.08;;;0.70;;
61741;SDS011;47650;49.848;9.620;2022-12-31T00:58:35;1.52;;;0.70;;
61741;SDS011;47650;49.848;9.620;2022-12-31T01:01:08;0.82;;;0.70;;
61741;SDS011;47650;49.848;9.620;2022-12-31T01:03:38;2.50;;;0.70;;
61741;SDS011;47650;49.848;9.620;2022-12-31T01:06:04;2.45;;;0.68;;
61741;SDS011;47650;49.848;9.620;2022-12-31T01:08:31;1.13;;;0.65;;
61741;SDS011;47650;49.848;9.620;2022-12-31T01:10:56;1.25;;;0.70;;
61741;SDS011;47650;49.848;9.620;2022-12-31T01:13:41;0.65;;;0.50;;
61741;SDS011;47650;49.848;9.620;2022-12-31T01:16:11;0.90;;;0.77;;
61741;SDS011;47650;49.848;9.620;2022-12-31T01:18:38;1.25;;;0.70;;
61741;SDS011;47650;49.848;9.620;2022-12-31T01:21:04;1.73;;;0.75;;
61741;SDS011;47650;49.848;9.620;2022-12-31T01:23:31;0.63;;;0.63;;
61741;SDS011;47650;49.848;9.620;2022-12-31T01:26:01;0.40;;;0.40;;
61741;SDS011;47650;49.848;9.620;2022-12-31T01:28:29;0.63;;;0.60;;
61741;SDS011;47650;49.848;9.620;2022-12-31T01:30:55;0.57;;;0.57;;
61741;SDS011;47650;49.848;9.620;2022-12-31T01:33:21;1.17;;;0.60;;
61741;SDS011;47650;49.848;9.620;2022-12-31T01:35:46;0.50;;;0.50;;
61741;SDS011;47650;49.848;9.620;2022-12-31T01:38:12;0.65;;;0.60;;
61741;SDS011;47650;49.848;9.620;2022-12-31T01:40:38;0.50;;;0.50;;
61741;SDS011;47650;49.848;9.620;2022-12-31T01:43:10;1.35;;;0.50;;
61741;SDS011;47650;49.848;9.620;2022-12-31T01:45:40;0.90;;;0.50;;
61741;SDS011;47650;49.848;9.620;2022-12-31T01:48:06;1.35;;;0.60;;
61741;SDS011;47650;49.848;9.620;2022-12-31T01:50:35;1.42;;;0.60;;
61741;SDS011;47650;49.848;9.620;2022-12-31T01:53:04;0.93;;;0.40;;
61741;SDS011;47650;49.848;9.620;2022-12-31T01:55:33;0.40;;;0.40;;
61741;SDS011;47650;49.848;9.620;2022-12-31T01:58:07;0.38;;;0.38;;
61741;SDS011;47650;49.848;9.620;2022-12-31T02:00:39;0.40;;;0.40;;
61741;SDS011;47650;49.848;9.620;2022-12-31T02:03:05;1.60;;;0.57;;
61741;SDS011;47650;49.848;9.620;2022-12-31T02:08:04;0.52;;;0.50;;
61741;SDS011;47650;49.848;9.620;2022-12-31T02:10:30;1.45;;;0.60;;
61741;SDS011;47650;49.848;9.620;2022-12-31T02:12:56;1.17;;;0.77;;
61741;SDS011;47650;49.848;9.620;2022-12-31T02:15:22;0.70;;;0.70;;
61741;SDS011;47650;49.848;9.620;2022-12-31T02:18:16;0.57;;;0.57;;
61741;SDS011;47650;49.848;9.620;2022-12-31T02:21:00;1.33;;;0.70;;
61741;SDS011;47650;49.848;9.620;2022-12-31T02:37:55;0.77;;;0.70;;
61741;SDS011;47650;49.848;9.620;2022-12-31T02:40:34;1.00;;;0.63;;
61741;SDS011;47650;49.848;9.620;2022-12-31T02:43:02;2.00;;;0.80;;
61741;SDS011;47650;49.848;9.620;2022-12-31T02:45:36;0.75;;;0.50;;
61741;SDS011;47650;49.848;9.620;2022-12-31T02:50:32;0.77;;;0.68;;
61741;SDS011;47650;49.848;9.620;2022-12-31T02:53:25;1.33;;;0.70;;
61741;SDS011;47650;49.848;9.620;2022-12-31T02:58:29;1.05;;;0.70;;
61741;SDS011;47650;49.848;9.620;2022-12-31T03:01:23;1.33;;;0.70;;
61741;SDS011;47650;49.848;9.620;2022-12-31T03:04:10;0.57;;;0.55;;
61741;SDS011;47650;49.848;9.620;2022-12-31T03:06:55;0.85;;;0.75;;
61741;SDS011;47650;49.848;9.620;2022-12-31T03:09:24;0.90;;;0.75;;
61741;SDS011;47650;49.848;9.620;2022-12-31T03:11:49;1.55;;;0.63;;
61741;SDS011;47650;49.848;9.620;2022-12-31T03:16:58;0.70;;;0.60;;
61741;SDS011;47650;49.848;9.620;2022-12-31T03:19:23;1.20;;;0.65;;
61741;SDS011;47650;49.848;9.620;2022-12-31T03:22:09;1.17;;;0.77;;
61741;SDS011;47650;49.848;9.620;2022-12-31T03:24:52;1.48;;;0.80;;
61741;SDS011;47650;49.848;9.620;2022-12-31T03:27:44;1.92;;;0.90;;
61741;SDS011;47650;49.848;9.620;2022-12-31T03:30:13;2.00;;;0.85;;
61741;SDS011;47650;49.848;9.620;2022-12-31T03:32:40;2.50;;;0.95;;
61741;SDS011;47650;49.848;9.620;2022-12-31T03:35:06;1.40;;;0.70;;
61741;SDS011;47650;49.848;9.620;2022-12-31T03:37:32;1.08;;;0.77;;
61741;SDS011;47650;49.848;9.620;2022-12-31T03:40:07;1.85;;;1.02;;
61741;SDS011;47650;49.848;9.620;2022-12-31T03:42:36;4.88;;;1.02;;
61741;SDS011;47650;49.848;9.620;2022-12-31T03:45:02;0.82;;;0.70;;
61741;SDS011;47650;49.848;9.620;2022-12-31T03:47:29;1.60;;;0.80;;
61741;SDS011;47650;49.848;9.620;2022-12-31T03:49:57;1.40;;;0.80;;
61741;SDS011;47650;49.848;9.620;2022-12-31T03:52:22;0.85;;;0.65;;
61741;SDS011;47650;49.848;9.620;2022-12-31T03:54:48;1.35;;;0.82;;
61741;SDS011;47650;49.848;9.620;2022-12-31T03:57:13;1.77;;;0.80;;
61741;SDS011;47650;49.848;9.620;2022-12-31T03:59:39;1.00;;;0.60;;
61741;SDS011;47650;49.848;9.620;2022-12-31T04:02:04;2.55;;;0.88;;
61741;SDS011;47650;49.848;9.620;2022-12-31T04:04:29;1.42;;;0.90;;
61741;SDS011;47650;49.848;9.620;2022-12-31T04:06:55;1.15;;;0.77;;
61741;SDS011;47650;49.848;9.620;2022-12-31T04:09:20;2.33;;;0.70;;
61741;SDS011;47650;49.848;9.620;2022-12-31T04:11:46;2.30;;;1.25;;
61741;SDS011;47650;49.848;9.620;2022-12-31T04:14:12;2.00;;;0.70;;
61741;SDS011;47650;49.848;9.620;2022-12-31T04:16:37;4.85;;;0.50;;
61741;SDS011;47650;49.848;9.620;2022-12-31T04:19:03;1.67;;;0.70;;
61741;SDS011;47650;49.848;9.620;2022-12-31T04:21:29;1.60;;;0.98;;
61741;SDS011;47650;49.848;9.620;2022-12-31T04:24:02;1.55;;;0.70;;
61741;SDS011;47650;49.848;9.620;2022-12-31T04:26:28;1.27;;;0.65;;
61741;SDS011;47650;49.848;9.620;2022-12-31T04:28:54;1.58;;;0.90;;
61741;SDS011;47650;49.848;9.620;2022-12-31T04:31:19;1.63;;;0.80;;
61741;SDS011;47650;49.848;9.620;2022-12-31T04:33:44;1.48;;;0.68;;
61741;SDS011;47650;49.848;9.620;2022-12-31T04:36:09;1.95;;;1.02;;
61741;SDS011;47650;49.848;9.620;2022-12-31T04:38:35;2.00;;;1.00;;
61741;SDS011;47650;49.848;9.620;2022-12-31T04:41:00;1.55;;;0.73;;
61741;SDS011;47650;49.848;9.620;2022-12-31T04:43:45;3.45;;;0.60;;
61741;SDS011;47650;49.848;9.620;2022-12-31T04:46:16;1.63;;;0.60;;
61741;SDS011;47650;49.848;9.620;2022-12-31T04:48:46;2.33;;;0.85;;
61741;SDS011;47650;49.848;9.620;2022-12-31T04:51:11;2.47;;;0.80;;
61741;SDS011;47650;49.848;9.620;2022-12-31T04:53:38;1.23;;;0.88;;
61741;SDS011;47650;49.848;9.620;2022-12-31T04:56:04;1.30;;;0.70;;
61741;SDS011;47650;49.848;9.620;2022-12-31T04:58:32;1.27;;;0.77;;
61741;SDS011;47650;49.848;9.620;2022-12-31T05:00:58;1.90;;;0.80;;
61741;SDS011;47650;49.848;9.620;2022-12-31T05:03:23;1.25;;;0.60;;
61741;SDS011;47650;49.848;9.620;2022-12-31T05:05:49;3.10;;;1.40;;
61741;SDS011;47650;49.848;9.620;2022-12-31T05:08:16;1.75;;;1.20;;
61741;SDS011;47650;49.848;9.620;2022-12-31T05:10:43;1.30;;;0.90;;
61741;SDS011;47650;49.848;9.620;2022-12-31T05:13:11;1.65;;;0.68;;
61741;SDS011;47650;49.848;9.620;2022-12-31T05:15:37;1.05;;;0.75;;
61741;SDS011;47650;49.848;9.620;2022-12-31T05:18:02;2.75;;;0.80;;
61741;SDS011;47650;49.848;9.620;2022-12-31T05:20:28;1.55;;;0.60;;
61741;SDS011;47650;49.848;9.620;2022-12-31T05:22:54;1.23;;;0.82;;
61741;SDS011;47650;49.848;9.620;2022-12-31T05:25:19;2.92;;;0.75;;
61741;SDS011;47650;49.848;9.620;2022-12-31T05:27:44;2.03;;;0.90;;
61741;SDS011;47650;49.848;9.620;2022-12-31T05:30:10;2.33;;;1.00;;
61741;SDS011;47650;49.848;9.620;2022-12-31T05:32:35;1.20;;;0.82;;
61741;SDS011;47650;49.848;9.620;2022-12-31T05:35:01;1.02;;;0.65;;
61741;SDS011;47650;49.848;9.620;2022-12-31T05:37:27;2.47;;;0.95;;
61741;SDS011;47650;49.848;9.620;2022-12-31T05:40:03;1.48;;;0.90;;
61741;SDS011;47650;49.848;9.620;2022-12-31T05:42:29;1.83;;;0.80;;
61741;SDS011;47650;49.848;9.620;2022-12-31T05:44:55;1.55;;;0.70;;
61741;SDS011;47650;49.848;9.620;2022-12-31T05:49:50;0.65;;;0.55;;
61741;SDS011;47650;49.848;9.620;2022-12-31T05:52:16;1.10;;;0.57;;
61741;SDS011;47650;49.848;9.620;2022-12-31T05:54:41;0.73;;;0.60;;
61741;SDS011;47650;49.848;9.620;2022-12-31T05:57:06;1.30;;;0.80;;
61741;SDS011;47650;49.848;9.620;2022-12-31T05:59:32;2.45;;;0.82;;
61741;SDS011;47650;49.848;9.620;2022-12-31T06:01:58;2.47;;;0.70;;
61741;SDS011;47650;49.848;9.620;2022-12-31T06:04:31;0.73;;;0.68;;
61741;SDS011;47650;49.848;9.620;2022-12-31T06:06:56;0.93;;;0.70;;
61741;SDS011;47650;49.848;9.620;2022-12-31T06:09:22;1.20;;;0.63;;
61741;SDS011;47650;49.848;9.620;2022-12-31T06:11:47;3.40;;;0.90;;
61741;SDS011;47650;49.848;9.620;2022-12-31T06:14:13;3.10;;;0.90;;
61741;SDS011;47650;49.848;9.620;2022-12-31T06:16:39;2.08;;;0.90;;
61741;SDS011;47650;49.848;9.620;2022-12-31T06:19:04;1.17;;;0.77;;
61741;SDS011;47650;49.848;9.620;2022-12-31T06:21:30;1.30;;;0.70;;
61741;SDS011;47650;49.848;9.620;2022-12-31T06:23:56;1.77;;;0.70;;
61741;SDS011;47650;49.848;9.620;2022-12-31T06:26:22;2.85;;;0.90;;
61741;SDS011;47650;49.848;9.620;2022-12-31T06:28:48;1.30;;;0.65;;
61741;SDS011;47650;49.848;9.620;2022-12-31T06:31:13;0.95;;;0.60;;
61741;SDS011;47650;49.848;9.620;2022-12-31T06:33:39;2.05;;;0.70;;
61741;SDS011;47650;49.848;9.620;2022-12-31T06:36:06;1.20;;;0.80;;
61741;SDS011;47650;49.848;9.620;2022-12-31T06:38:36;2.15;;;0.80;;
61741;SDS011;47650;49.848;9.620;2022-12-31T06:41:03;1.10;;;1.00;;
61741;SDS011;47650;49.848;9.620;2022-12-31T06:43:35;1.25;;;0.80;;
61741;SDS011;47650;49.848;9.620;2022-12-31T06:46:01;1.30;;;0.70;;
61741;SDS011;47650;49.848;9.620;2022-12-31T06:48:29;0.90;;;0.60;;
61741;SDS011;47650;49.848;9.620;2022-12-31T06:50:55;0.50;;;0.50;;
61741;SDS011;47650;49.848;9.620;2022-12-31T06:53:20;1.05;;;0.60;;
61741;SDS011;47650;49.848;9.620;2022-12-31T06:55:49;0.70;;;0.65;;
61741;SDS011;47650;49.848;9.620;2022-12-31T06:58:15;1.42;;;0.98;;
61741;SDS011;47650;49.848;9.620;2022-12-31T07:00:42;2.50;;;1.05;;
61741;SDS011;47650;49.848;9.620;2022-12-31T07:03:19;1.27;;;0.70;;
61741;SDS011;47650;49.848;9.620;2022-12-31T07:06:15;1.77;;;0.70;;
61741;SDS011;47650;49.848;9.620;2022-12-31T07:09:00;1.05;;;0.80;;
61741;SDS011;47650;49.848;9.620;2022-12-31T07:15:03;0.95;;;0.60;;
61741;SDS011;47650;49.848;9.620;2022-12-31T07:20:14;1.73;;;1.00;;
61741;SDS011;47650;49.848;9.620;2022-12-31T07:22:41;1.02;;;0.70;;
61741;SDS011;47650;49.848;9.620;2022-12-31T07:25:15;2.67;;;1.05;;
61741;SDS011;47650;49.848;9.620;2022-12-31T07:35:42;1.25;;;0.70;;
61741;SDS011;47650;49.848;9.620;2022-12-31T07:38:27;1.60;;;0.77;;
61741;SDS011;47650;49.848;9.620;2022-12-31T07:41:16;0.80;;;0.50;;
61741;SDS011;47650;49.848;9.620;2022-12-31T07:47:00;1.75;;;0.73;;
61741;SDS011;47650;49.848;9.620;2022-12-31T07:49:29;1.30;;;0.90;;
61741;SDS011;47650;49.848;9.620;2022-12-31T07:51:55;2.10;;;0.90;;
61741;SDS011;47650;49.848;9.620;2022-12-31T07:54:21;1.50;;;0.80;;
61741;SDS011;47650;49.848;9.620;2022-12-31T07:56:47;1.60;;;0.73;;
61741;SDS011;47650;49.848;9.620;2022-12-31T08:01:46;1.85;;;0.88;;
61741;SDS011;47650;49.848;9.620;2022-12-31T08:04:26;2.25;;;0.98;;
61741;SDS011;47650;49.848;9.620;2022-12-31T08:07:46;2.17;;;0.70;;
61741;SDS011;47650;49.848;9.620;2022-12-31T08:13:07;1.67;;;0.90;;
61741;SDS011;47650;49.848;9.620;2022-12-31T08:15:36;1.05;;;0.65;;
61741;SDS011;47650;49.848;9.620;2022-12-31T08:18:02;2.60;;;0.80;;
61741;SDS011;47650;49.848;9.620;2022-12-31T08:20:29;2.53;;;0.82;;
61741;SDS011;47650;49.848;9.620;2022-12-31T08:23:58;2.75;;;1.17;;
61741;SDS011;47650;49.848;9.620;2022-12-31T08:26:37;1.65;;;0.95;;
61741;SDS011;47650;49.848;9.620;2022-12-31T08:29:20;4.07;;;1.15;;
61741;SDS011;47650;49.848;9.620;2022-12-31T08:37:40;2.00;;;1.00;;
61741;SDS011;47650;49.848;9.620;2022-12-31T08:45:49;0.98;;;0.80;;
61741;SDS011;47650;49.848;9.620;2022-12-31T08:48:21;1.83;;;0.98;;
61741;SDS011;47650;49.848;9.620;2022-12-31T08:50:53;2.25;;;1.08;;
61741;SDS011;47650;49.848;9.620;2022-12-31T08:53:19;2.90;;;1.10;;
61741;SDS011;47650;49.848;9.620;2022-12-31T08:55:45;0.73;;;0.73;;
61741;SDS011;47650;49.848;9.620;2022-12-31T09:01:17;2.40;;;1.05;;
61741;SDS011;47650;49.848;9.620;2022-12-31T09:11:53;1.02;;;0.75;;
61741;SDS011;47650;49.848;9.620;2022-12-31T09:19:57;1.35;;;0.80;;
61741;SDS011;47650;49.848;9.620;2022-12-31T09:22:23;1.33;;;0.80;;
61741;SDS011;47650;49.848;9.620;2022-12-31T09:24:55;0.95;;;0.80;;
61741;SDS011;47650;49.848;9.620;2022-12-31T09:55:12;3.58;;;0.77;;
61741;SDS011;47650;49.848;9.620;2022-12-31T09:58:30;2.20;;;0.98;;
61741;SDS011;47650;49.848;9.620;2022-12-31T10:00:43;1.98;;;0.98;;
61741;SDS011;47650;49.848;9.620;2022-12-31T10:20:37;1.88;;;1.10;;
61741;SDS011;47650;49.848;9.620;2022-12-31T10:28:58;2.45;;;1.08;;
61741;SDS011;47650;49.848;9.620;2022-12-31T10:31:41;1.55;;;1.00;;
61741;SDS011;47650;49.848;9.620;2022-12-31T10:34:24;1.10;;;1.00;;
61741;SDS011;47650;49.848;9.620;2022-12-31T10:44:57;2.63;;;1.10;;
61741;SDS011;47650;49.848;9.620;2022-12-31T10:47:45;1.25;;;1.00;;
61741;SDS011;47650;49.848;9.620;2022-12-31T10:50:58;1.38;;;1.13;;
61741;SDS011;47650;49.848;9.620;2022-12-31T10:53:53;1.80;;;1.20;;
61741;SDS011;47650;49.848;9.620;2022-12-31T10:59:52;1.48;;;1.05;;
61741;SDS011;47650;49.848;9.620;2022-12-31T11:14:13;1.40;;;1.10;;
61741;SDS011;47650;49.848;9.620;2022-12-31T11:25:00;1.58;;;1.00;;
61741;SDS011;47650;49.848;9.620;2022-12-31T11:30:21;1.98;;;1.10;;
61741;SDS011;47650;49.848;9.620;2022-12-31T11:38:51;2.42;;;1.20;;
61741;SDS011;47650;49.848;9.620;2022-12-31T11:44:13;1.85;;;1.10;;
61741;SDS011;47650;49.848;9.620;2022-12-31T11:52:16;2.53;;;1.20;;
61741;SDS011;47650;49.848;9.620;2022-12-31T11:54:48;2.05;;;1.10;;
61741;SDS011;47650;49.848;9.620;2022-12-31T12:02:50;2.15;;;0.98;;
61741;SDS011;47650;49.848;9.620;2022-12-31T12:05:22;1.45;;;1.10;;
61741;SDS011;47650;49.848;9.620;2022-12-31T12:07:49;3.03;;;1.10;;
61741;SDS011;47650;49.848;9.620;2022-12-31T12:10:16;2.10;;;1.10;;
61741;SDS011;47650;49.848;9.620;2022-12-31T12:12:48;2.28;;;1.30;;
61741;SDS011;47650;49.848;9.620;2022-12-31T12:15:32;3.10;;;1.10;;
61741;SDS011;47650;49.848;9.620;2022-12-31T12:18:03;3.72;;;1.40;;
61741;SDS011;47650;49.848;9.620;2022-12-31T12:20:35;1.98;;;1.00;;
61741;SDS011;47650;49.848;9.620;2022-12-31T12:23:15;2.30;;;1.20;;
61741;SDS011;47650;49.848;9.620;2022-12-31T12:25:49;1.27;;;0.70;;
61741;SDS011;47650;49.848;9.620;2022-12-31T12:28:20;1.83;;;0.90;;
61741;SDS011;47650;49.848;9.620;2022-12-31T12:31:04;1.45;;;0.90;;
61741;SDS011;47650;49.848;9.620;2022-12-31T12:33:38;1.40;;;0.88;;
61741;SDS011;47650;49.848;9.620;2022-12-31T12:36:07;1.85;;;1.02;;
61741;SDS011;47650;49.848;9.620;2022-12-31T12:38:33;1.67;;;1.00;;
61741;SDS011;47650;49.848;9.620;2022-12-31T12:41:00;1.80;;;1.08;;
61741;SDS011;47650;49.848;9.620;2022-12-31T12:43:31;1.85;;;1.23;;
61741;SDS011;47650;49.848;9.620;2022-12-31T12:46:00;1.48;;;1.00;;
61741;SDS011;47650;49.848;9.620;2022-12-31T12:48:36;1.98;;;1.10;;
61741;SDS011;47650;49.848;9.620;2022-12-31T12:51:48;2.05;;;1.00;;
61741;SDS011;47650;49.848;9.620;2022-12-31T13:00:08;2.58;;;1.00;;
61741;SDS011;47650;49.848;9.620;2022-12-31T13:19:35;2.75;;;1.00;;
61741;SDS011;47650;49.848;9.620;2022-12-31T13:27:41;3.25;;;1.25;;
61741;SDS011;47650;49.848;9.620;2022-12-31T13:30:25;2.17;;;0.90;;
61741;SDS011;47650;49.848;9.620;2022-12-31T13:32:57;1.63;;;0.80;;
61741;SDS011;47650;49.848;9.620;2022-12-31T13:35:28;1.55;;;1.00;;
61741;SDS011;47650;49.848;9.620;2022-12-31T13:37:59;1.85;;;1.02;;
61741;SDS011;47650;49.848;9.620;2022-12-31T13:43:40;2.20;;;1.00;;
61741;SDS011;47650;49.848;9.620;2022-12-31T13:49:04;2.42;;;1.00;;
61741;SDS011;47650;49.848;9.620;2022-12-31T13:52:39;1.80;;;1.20;;
61741;SDS011;47650;49.848;9.620;2022-12-31T13:57:55;3.40;;;1.38;;
61741;SDS011;47650;49.848;9.620;2022-12-31T14:00:42;1.52;;;1.02;;
61741;SDS011;47650;49.848;9.620;2022-12-31T14:03:13;2.78;;;1.20;;
61741;SDS011;47650;49.848;9.620;2022-12-31T14:05:57;3.83;;;1.15;;
61741;SDS011;47650;49.848;9.620;2022-12-31T14:08:28;2.65;;;1.23;;
61741;SDS011;47650;49.848;9.620;2022-12-31T14:13:32;2.28;;;1.10;;
61741;SDS011;47650;49.848;9.620;2022-12-31T14:16:23;2.03;;;1.00;;
61741;SDS011;47650;49.848;9.620;2022-12-31T14:21:53;0.83;;;0.80;;
61741;SDS011;47650;49.848;9.620;2022-12-31T14:24:27;1.40;;;0.90;;
61741;SDS011;47650;49.848;9.620;2022-12-31T14:27:07;2.25;;;1.00;;
61741;SDS011;47650;49.848;9.620;2022-12-31T14:29:47;2.15;;;1.00;;
61741;SDS011;47650;49.848;9.620;2022-12-31T14:32:41;1.23;;;0.95;;
61741;SDS011;47650;49.848;9.620;2022-12-31T14:38:10;1.00;;;0.90;;
61741;SDS011;47650;49.848;9.620;2022-12-31T14:47:20;0.85;;;0.70;;
61741;SDS011;47650;49.848;9.620;2022-12-31T14:50:05;1.23;;;0.90;;
61741;SDS011;47650;49.848;9.620;2022-12-31T14:52:47;1.88;;;0.73;;
61741;SDS011;47650;49.848;9.620;2022-12-31T14:57:41;2.00;;;0.82;;
61741;SDS011;47650;49.848;9.620;2022-12-31T15:02:48;2.13;;;0.90;;
61741;SDS011;47650;49.848;9.620;2022-12-31T15:05:18;1.60;;;0.90;;
61741;SDS011;47650;49.848;9.620;2022-12-31T15:07:48;2.78;;;0.82;;
61741;SDS011;47650;49.848;9.620;2022-12-31T15:10:25;2.08;;;0.90;;
61741;SDS011;47650;49.848;9.620;2022-12-31T15:13:57;1.75;;;0.93;;
61741;SDS011;47650;49.848;9.620;2022-12-31T15:23:59;2.72;;;1.20;;
61741;SDS011;47650;49.848;9.620;2022-12-31T15:26:28;3.80;;;2.10;;
61741;SDS011;47650;49.848;9.620;2022-12-31T15:29:06;2.63;;;1.42;;
61741;SDS011;47650;49.848;9.620;2022-12-31T15:31:43;4.05;;;1.48;;
61741;SDS011;47650;49.848;9.620;2022-12-31T15:37:06;2.50;;;1.20;;
61741;SDS011;47650;49.848;9.620;2022-12-31T15:40:02;3.80;;;1.50;;
61741;SDS011;47650;49.848;9.620;2022-12-31T15:42:33;2.42;;;1.50;;
61741;SDS011;47650;49.848;9.620;2022-12-31T15:45:10;2.85;;;1.38;;
61741;SDS011;47650;49.848;9.620;2022-12-31T15:47:47;2.33;;;1.35;;
61741;SDS011;47650;49.848;9.620;2022-12-31T15:50:17;2.83;;;1.10;;
61741;SDS011;47650;49.848;9.620;2022-12-31T15:52:51;2.08;;;1.05;;
61741;SDS011;47650;49.848;9.620;2022-12-31T15:55:24;1.20;;;1.00;;
61741;SDS011;47650;49.848;9.620;2022-12-31T15:57:57;1.10;;;0.90;;
61741;SDS011;47650;49.848;9.620;2022-12-31T16:00:27;2.03;;;0.90;;
61741;SDS011;47650;49.848;9.620;2022-12-31T16:03:09;3.35;;;1.27;;
61741;SDS011;47650;49.848;9.620;2022-12-31T16:05:44;2.78;;;1.20;;
61741;SDS011;47650;49.848;9.620;2022-12-31T16:08:15;1.80;;;1.00;;
61741;SDS011;47650;49.848;9.620;2022-12-31T16:10:44;1.27;;;1.08;;
61741;SDS011;47650;49.848;9.620;2022-12-31T16:13:15;2.67;;;1.23;;
61741;SDS011;47650;49.848;9.620;2022-12-31T16:15:46;1.88;;;1.20;;
61741;SDS011;47650;49.848;9.620;2022-12-31T16:18:16;3.30;;;1.00;;
61741;SDS011;47650;49.848;9.620;2022-12-31T16:20:43;2.22;;;1.33;;
61741;SDS011;47650;49.848;9.620;2022-12-31T16:23:22;2.88;;;1.40;;
61741;SDS011;47650;49.848;9.620;2022-12-31T16:25:49;1.27;;;0.90;;
61741;SDS011;47650;49.848;9.620;2022-12-31T16:28:18;1.77;;;0.93;;
61741;SDS011;47650;49.848;9.620;2022-12-31T16:30:54;1.33;;;1.10;;
61741;SDS011;47650;49.848;9.620;2022-12-31T16:33:24;1.95;;;1.20;;
61741;SDS011;47650;49.848;9.620;2022-12-31T16:35:54;1.83;;;1.20;;
61741;SDS011;47650;49.848;9.620;2022-12-31T16:38:21;1.40;;;1.17;;
61741;SDS011;47650;49.848;9.620;2022-12-31T16:43:38;2.17;;;1.30;;
61741;SDS011;47650;49.848;9.620;2022-12-31T16:48:54;1.75;;;1.27;;
61741;SDS011;47650;49.848;9.620;2022-12-31T16:51:29;2.35;;;1.50;;
61741;SDS011;47650;49.848;9.620;2022-12-31T16:53:56;2.55;;;1.70;;
61741;SDS011;47650;49.848;9.620;2022-12-31T16:59:03;4.13;;;2.88;;
61741;SDS011;47650;49.848;9.620;2022-12-31T17:01:47;7.43;;;2.53;;
61741;SDS011;47650;49.848;9.620;2022-12-31T17:04:14;3.85;;;2.22;;
61741;SDS011;47650;49.848;9.620;2022-12-31T17:06:44;2.90;;;1.90;;
61741;SDS011;47650;49.848;9.620;2022-12-31T17:14:15;2.70;;;1.60;;
61741;SDS011;47650;49.848;9.620;2022-12-31T17:16:52;3.53;;;1.90;;
61741;SDS011;47650;49.848;9.620;2022-12-31T17:19:33;2.40;;;1.80;;
61741;SDS011;47650;49.848;9.620;2022-12-31T17:25:00;2.35;;;1.70;;
61741;SDS011;47650;49.848;9.620;2022-12-31T17:27:31;2.97;;;1.90;;
61741;SDS011;47650;49.848;9.620;2022-12-31T17:35:42;3.42;;;1.35;;
61741;SDS011;47650;49.848;9.620;2022-12-31T17:40:47;2.60;;;1.55;;
61741;SDS011;47650;49.848;9.620;2022-12-31T17:43:16;3.10;;;1.60;;
61741;SDS011;47650;49.848;9.620;2022-12-31T17:45:42;3.28;;;2.40;;
61741;SDS011;47650;49.848;9.620;2022-12-31T17:48:14;3.70;;;2.65;;
61741;SDS011;47650;49.848;9.620;2022-12-31T17:50:45;4.45;;;3.13;;
61741;SDS011;47650;49.848;9.620;2022-12-31T17:53:18;6.00;;;3.95;;
61741;SDS011;47650;49.848;9.620;2022-12-31T17:55:44;4.07;;;3.53;;
61741;SDS011;47650;49.848;9.620;2022-12-31T18:00:55;7.03;;;3.20;;
61741;SDS011;47650;49.848;9.620;2022-12-31T18:03:21;4.10;;;2.67;;
61741;SDS011;47650;49.848;9.620;2022-12-31T18:05:46;2.83;;;2.00;;
61741;SDS011;47650;49.848;9.620;2022-12-31T18:08:12;4.40;;;2.28;;
61741;SDS011;47650;49.848;9.620;2022-12-31T18:10:38;3.97;;;2.83;;
61741;SDS011;47650;49.848;9.620;2022-12-31T18:13:06;5.22;;;3.30;;
61741;SDS011;47650;49.848;9.620;2022-12-31T18:15:39;4.13;;;2.92;;
61741;SDS011;47650;49.848;9.620;2022-12-31T18:18:15;4.15;;;3.10;;
61741;SDS011;47650;49.848;9.620;2022-12-31T18:20:43;3.83;;;3.20;;
61741;SDS011;47650;49.848;9.620;2022-12-31T18:23:12;5.10;;;2.40;;
61741;SDS011;47650;49.848;9.620;2022-12-31T18:25:42;4.07;;;2.35;;
61741;SDS011;47650;49.848;9.620;2022-12-31T18:28:08;3.50;;;2.53;;
61741;SDS011;47650;49.848;9.620;2022-12-31T18:30:35;3.25;;;2.88;;
61741;SDS011;47650;49.848;9.620;2022-12-31T18:33:11;5.47;;;3.50;;
61741;SDS011;47650;49.848;9.620;2022-12-31T18:35:38;3.58;;;2.50;;
61741;SDS011;47650;49.848;9.620;2022-12-31T18:38:11;5.20;;;2.83;;
61741;SDS011;47650;49.848;9.620;2022-12-31T18:40:37;6.40;;;3.13;;
61741;SDS011;47650;49.848;9.620;2022-12-31T18:43:08;3.72;;;2.05;;
61741;SDS011;47650;49.848;9.620;2022-12-31T18:45:38;1.92;;;1.50;;
61741;SDS011;47650;49.848;9.620;2022-12-31T18:48:04;2.30;;;1.60;;
61741;SDS011;47650;49.848;9.620;2022-12-31T18:50:32;4.13;;;1.88;;
61741;SDS011;47650;49.848;9.620;2022-12-31T18:53:05;1.80;;;1.48;;
61741;SDS011;47650;49.848;9.620;2022-12-31T18:55:41;5.43;;;2.58;;
61741;SDS011;47650;49.848;9.620;2022-12-31T18:58:12;4.03;;;2.30;;
61741;SDS011;47650;49.848;9.620;2022-12-31T19:00:38;4.60;;;2.10;;
61741;SDS011;47650;49.848;9.620;2022-12-31T19:03:03;2.78;;;2.38;;
61741;SDS011;47650;49.848;9.620;2022-12-31T19:05:30;3.33;;;1.70;;
61741;SDS011;47650;49.848;9.620;2022-12-31T19:07:59;3.65;;;2.13;;
61741;SDS011;47650;49.848;9.620;2022-12-31T19:12:58;2.45;;;1.80;;
61741;SDS011;47650;49.848;9.620;2022-12-31T19:18:19;3.50;;;1.90;;
61741;SDS011;47650;49.848;9.620;2022-12-31T19:20:45;2.97;;;1.98;;
61741;SDS011;47650;49.848;9.620;2022-12-31T19:23:14;4.50;;;1.45;;
61741;SDS011;47650;49.848;9.620;2022-12-31T19:25:43;3.03;;;1.70;;
61741;SDS011;47650;49.848;9.620;2022-12-31T19:28:13;5.82;;;1.88;;
61741;SDS011;47650;49.848;9.620;2022-12-31T19:30:46;2.95;;;1.20;;
61741;SDS011;47650;49.848;9.620;2022-12-31T19:33:11;3.58;;;1.40;;
61741;SDS011;47650;49.848;9.620;2022-12-31T19:35:37;3.08;;;1.88;;
61741;SDS011;47650;49.848;9.620;2022-12-31T19:38:05;2.50;;;1.80;;
61741;SDS011;47650;49.848;9.620;2022-12-31T19:40:39;2.55;;;1.27;;
61741;SDS011;47650;49.848;9.620;2022-12-31T19:43:10;2.33;;;1.30;;
61741;SDS011;47650;49.848;9.620;2022-12-31T19:45:38;2.60;;;1.60;;
61741;SDS011;47650;49.848;9.620;2022-12-31T19:48:05;2.88;;;1.10;;
61741;SDS011;47650;49.848;9.620;2022-12-31T19:50:30;2.83;;;2.00;;
61741;SDS011;47650;49.848;9.620;2022-12-31T19:52:57;9.80;;;1.88;;
61741;SDS011;47650;49.848;9.620;2022-12-31T19:55:22;3.10;;;1.60;;
61741;SDS011;47650;49.848;9.620;2022-12-31T19:57:50;3.05;;;1.70;;